createdAt,value
2016-06-08T00:00:23.855Z,0
2016-06-08T00:01:23.890Z,0
2016-06-08T00:02:23.955Z,0
2016-06-08T00:03:23.988Z,0
2016-06-08T00:04:24.053Z,0
2016-06-08T00:05:24.056Z,0
2016-06-08T00:06:24.106Z,0
2016-06-08T00:07:24.124Z,0
2016-06-08T00:08:24.158Z,0
2016-06-08T00:09:24.192Z,0
2016-06-08T00:10:24.241Z,0
2016-06-08T00:11:24.635Z,0
2016-06-08T00:12:24.699Z,0
2016-06-08T00:13:24.390Z,0
2016-06-08T00:14:24.408Z,0
2016-06-08T00:15:24.427Z,0
2016-06-08T00:16:24.477Z,0
2016-06-08T00:17:24.510Z,0
2016-06-08T00:18:24.544Z,0
2016-06-08T00:19:24.593Z,0
2016-06-08T00:20:24.628Z,0
2016-06-08T00:21:24.662Z,0
2016-06-08T00:22:24.696Z,0
2016-06-08T00:23:24.729Z,0
2016-06-08T00:24:24.778Z,0
2016-06-08T00:25:24.813Z,0
2016-06-08T00:26:25.534Z,0
2016-06-08T00:27:25.115Z,0
2016-06-08T00:28:24.930Z,0
2016-06-08T00:29:24.964Z,0
2016-06-08T00:30:24.998Z,0
2016-06-08T00:31:25.033Z,0
2016-06-08T00:32:25.067Z,0
2016-06-08T00:33:24.959Z,0
2016-06-08T00:34:25.150Z,0
2016-06-08T00:35:25.183Z,0
2016-06-08T00:36:25.061Z,0
2016-06-08T00:37:25.267Z,0
2016-06-08T00:38:25.301Z,0
2016-06-08T00:39:25.336Z,0
2016-06-08T00:40:25.385Z,0
2016-06-08T00:41:25.419Z,0
2016-06-08T00:42:25.688Z,0
2016-06-08T00:43:25.486Z,0
2016-06-08T00:44:25.521Z,0
2016-06-08T00:45:25.554Z,0
2016-06-08T00:46:25.604Z,0
2016-06-08T00:47:25.638Z,0
2016-06-08T00:48:25.688Z,0
2016-06-08T00:49:25.737Z,0
2016-06-08T00:50:25.755Z,0
2016-06-08T00:51:25.632Z,0
2016-06-08T00:52:25.667Z,0
2016-06-08T00:53:25.873Z,0
2016-06-08T00:54:25.750Z,0
2016-06-08T00:55:25.941Z,0
2016-06-08T00:56:25.834Z,0
2016-06-08T00:57:26.040Z,0
2016-06-08T00:58:26.059Z,0
2016-06-08T00:59:26.092Z,0
2016-06-08T01:00:25.986Z,0
2016-06-08T01:01:26.175Z,0
2016-06-08T01:02:26.225Z,0
2016-06-08T01:03:26.244Z,0
2016-06-08T01:04:26.293Z,0
2016-06-08T01:05:26.342Z,0
2016-06-08T01:06:26.361Z,0
2016-06-08T01:07:26.394Z,0
2016-06-08T01:08:26.428Z,0
2016-06-08T01:09:26.478Z,0
2016-06-08T01:10:26.355Z,0
2016-06-08T01:11:26.266Z,0
2016-06-08T01:12:26.908Z,0
2016-06-08T01:13:26.630Z,0
2016-06-08T01:14:26.664Z,0
2016-06-08T01:15:26.697Z,0
2016-06-08T01:16:26.732Z,0
2016-06-08T01:17:26.781Z,0
2016-06-08T01:18:26.815Z,0
2016-06-08T01:19:26.849Z,0
2016-06-08T01:20:26.899Z,0
2016-06-08T01:21:26.760Z,0
2016-06-08T01:22:26.966Z,0
2016-06-08T01:23:27.001Z,0
2016-06-08T01:24:27.034Z,0
2016-06-08T01:25:27.084Z,0
2016-06-08T01:26:26.992Z,0
2016-06-08T01:27:27.449Z,0
2016-06-08T01:28:27.201Z,0
2016-06-08T01:29:27.220Z,0
2016-06-08T01:30:27.270Z,0
2016-06-08T01:31:27.303Z,0
2016-06-08T01:32:27.337Z,0
2016-06-08T01:33:27.370Z,0
2016-06-08T01:34:27.405Z,0
2016-06-08T01:35:27.455Z,0
2016-06-08T01:36:27.489Z,0
2016-06-08T01:37:27.522Z,0
2016-06-08T01:38:27.572Z,0
2016-06-08T01:39:27.590Z,0
2016-06-08T01:40:27.639Z,0
2016-06-08T01:41:27.986Z,0
2016-06-08T01:42:28.160Z,0
2016-06-08T01:43:27.758Z,0
2016-06-08T01:44:27.807Z,0
2016-06-08T01:45:27.825Z,0
2016-06-08T01:46:27.875Z,0
2016-06-08T01:47:27.893Z,0
2016-06-08T01:48:27.786Z,0
2016-06-08T01:49:27.976Z,0
2016-06-08T01:50:28.010Z,0
2016-06-08T01:51:28.060Z,0
2016-06-08T01:52:28.094Z,0
2016-06-08T01:53:28.143Z,0
2016-06-08T01:54:28.162Z,0
2016-06-08T01:55:28.211Z,0
2016-06-08T01:56:28.542Z,0
2016-06-08T01:57:29.060Z,0
2016-06-08T01:58:28.329Z,0
2016-06-08T01:59:28.363Z,0
2016-06-08T02:00:28.412Z,0
2016-06-08T02:01:28.431Z,0
2016-06-08T02:02:28.465Z,0
2016-06-08T02:03:28.498Z,0
2016-06-08T02:04:28.548Z,0
2016-06-08T02:05:28.581Z,0
2016-06-08T02:06:28.616Z,0
2016-06-08T02:07:28.666Z,0
2016-06-08T02:08:28.700Z,0
2016-06-08T02:09:28.733Z,0
2016-06-08T02:10:28.767Z,0
2016-06-08T02:11:28.816Z,0
2016-06-08T02:12:29.398Z,0
2016-06-08T02:13:28.885Z,0
2016-06-08T02:14:28.919Z,0
2016-06-08T02:15:28.953Z,0
2016-06-08T02:16:28.846Z,0
2016-06-08T02:17:29.036Z,0
2016-06-08T02:18:29.071Z,0
2016-06-08T02:19:29.104Z,0
2016-06-08T02:20:29.138Z,0
2016-06-08T02:21:29.203Z,0
2016-06-08T02:22:29.221Z,0
2016-06-08T02:23:29.255Z,0
2016-06-08T02:24:29.149Z,0
2016-06-08T02:25:29.323Z,0
2016-06-08T02:26:29.357Z,0
2016-06-08T02:27:29.984Z,0
2016-06-08T02:28:29.440Z,0
2016-06-08T02:29:29.475Z,0
2016-06-08T02:30:29.523Z,0
2016-06-08T02:31:29.574Z,0
2016-06-08T02:32:29.592Z,0
2016-06-08T02:33:29.626Z,0
2016-06-08T02:34:29.520Z,0
2016-06-08T02:35:29.694Z,0
2016-06-08T02:36:29.744Z,0
2016-06-08T02:37:29.778Z,0
2016-06-08T02:38:29.811Z,4
2016-06-08T02:39:29.705Z,4
2016-06-08T02:40:29.895Z,0
2016-06-08T02:41:29.819Z,0
2016-06-08T02:42:29.916Z,0
2016-06-08T02:43:30.012Z,4
2016-06-08T02:44:30.046Z,0
2016-06-08T02:45:30.081Z,4
2016-06-08T02:46:29.973Z,0
2016-06-08T02:47:30.149Z,4
2016-06-08T02:48:30.213Z,0
2016-06-08T02:49:30.232Z,4
2016-06-08T02:50:30.266Z,4
2016-06-08T02:51:30.299Z,4
2016-06-08T02:52:30.349Z,4
2016-06-08T02:53:30.368Z,4
2016-06-08T02:54:30.417Z,4
2016-06-08T02:55:30.466Z,4
2016-06-08T02:56:30.485Z,4
2016-06-08T02:57:30.956Z,8
2016-06-08T02:58:30.553Z,8
2016-06-08T02:59:30.586Z,8
2016-06-08T03:00:30.636Z,12
2016-06-08T03:01:30.687Z,12
2016-06-08T03:02:30.703Z,16
2016-06-08T03:03:30.754Z,16
2016-06-08T03:04:30.803Z,16
2016-06-08T03:05:30.822Z,20
2016-06-08T03:06:30.871Z,20
2016-06-08T03:07:30.905Z,24
2016-06-08T03:08:30.923Z,24
2016-06-08T03:09:30.958Z,24
2016-06-08T03:10:31.006Z,24
2016-06-08T03:11:31.041Z,28
2016-06-08T03:12:31.325Z,32
2016-06-08T03:13:31.108Z,32
2016-06-08T03:14:31.158Z,36
2016-06-08T03:15:31.191Z,36
2016-06-08T03:16:31.241Z,40
2016-06-08T03:17:31.276Z,40
2016-06-08T03:18:31.294Z,48
2016-06-08T03:19:31.406Z,48
2016-06-08T03:20:31.377Z,52
2016-06-08T03:21:31.411Z,52
2016-06-08T03:22:31.304Z,56
2016-06-08T03:23:31.338Z,60
2016-06-08T03:24:31.529Z,64
2016-06-08T03:25:31.563Z,72
2016-06-08T03:26:31.597Z,76
2016-06-08T03:27:32.131Z,76
2016-06-08T03:28:31.665Z,84
2016-06-08T03:29:31.714Z,88
2016-06-08T03:30:31.748Z,96
2016-06-08T03:31:31.797Z,100
2016-06-08T03:32:31.675Z,104
2016-06-08T03:33:31.866Z,112
2016-06-08T03:34:31.900Z,120
2016-06-08T03:35:31.934Z,124
2016-06-08T03:36:31.983Z,132
2016-06-08T03:37:32.017Z,136
2016-06-08T03:38:32.067Z,144
2016-06-08T03:39:32.084Z,152
2016-06-08T03:40:32.134Z,160
2016-06-08T03:41:32.153Z,168
2016-06-08T03:42:32.218Z,176
2016-06-08T03:43:32.236Z,184
2016-06-08T03:44:32.270Z,192
2016-06-08T03:45:32.305Z,200
2016-06-08T03:46:32.353Z,208
2016-06-08T03:47:32.387Z,216
2016-06-08T03:48:32.422Z,224
2016-06-08T03:49:32.455Z,236
2016-06-08T03:50:32.489Z,240
2016-06-08T03:51:32.523Z,252
2016-06-08T03:52:32.573Z,260
2016-06-08T03:53:32.607Z,272
2016-06-08T03:54:32.641Z,280
2016-06-08T03:55:32.674Z,288
2016-06-08T03:56:32.724Z,300
2016-06-08T03:57:33.179Z,308
2016-06-08T03:58:32.793Z,316
2016-06-08T03:59:32.827Z,328
2016-06-08T04:00:32.876Z,336
2016-06-08T04:01:32.893Z,344
2016-06-08T04:02:32.928Z,356
2016-06-08T04:03:32.978Z,364
2016-06-08T04:04:33.011Z,368
2016-06-08T04:05:33.045Z,376
2016-06-08T04:06:33.095Z,388
2016-06-08T04:07:33.114Z,400
2016-06-08T04:08:33.162Z,404
2016-06-08T04:09:33.212Z,412
2016-06-08T04:10:33.247Z,420
2016-06-08T04:11:33.264Z,428
2016-06-08T04:12:33.048Z,432
2016-06-08T04:13:33.347Z,440
2016-06-08T04:14:33.383Z,444
2016-06-08T04:15:33.417Z,456
2016-06-08T04:16:33.450Z,460
2016-06-08T04:17:33.483Z,468
2016-06-08T04:18:33.533Z,472
2016-06-08T04:19:33.583Z,480
2016-06-08T04:20:33.601Z,500
2016-06-08T04:21:33.666Z,528
2016-06-08T04:22:33.685Z,552
2016-06-08T04:23:33.719Z,568
2016-06-08T04:24:33.768Z,580
2016-06-08T04:25:33.802Z,584
2016-06-08T04:26:33.836Z,584
2016-06-08T04:27:33.870Z,596
2016-06-08T04:28:33.763Z,604
2016-06-08T04:29:33.953Z,632
2016-06-08T04:30:34.004Z,728
2016-06-08T04:31:34.022Z,856
2016-06-08T04:32:34.056Z,892
2016-06-08T04:33:34.090Z,896
2016-06-08T04:34:33.982Z,908
2016-06-08T04:35:34.189Z,900
2016-06-08T04:36:34.206Z,920
2016-06-08T04:37:34.240Z,948
2016-06-08T04:38:34.290Z,948
2016-06-08T04:39:34.309Z,924
2016-06-08T04:40:34.358Z,912
2016-06-08T04:41:34.423Z,980
2016-06-08T04:42:35.942Z,992
2016-06-08T04:43:34.475Z,996
2016-06-08T04:44:34.509Z,992
2016-06-08T04:45:34.543Z,968
2016-06-08T04:46:34.578Z,996
2016-06-08T04:47:34.628Z,1084
2016-06-08T04:48:34.520Z,1108
2016-06-08T04:49:34.710Z,1120
2016-06-08T04:50:34.744Z,1128
2016-06-08T04:51:34.778Z,1120
2016-06-08T04:52:34.827Z,1128
2016-06-08T04:53:34.863Z,1152
2016-06-08T04:54:34.896Z,1156
2016-06-08T04:55:34.961Z,1164
2016-06-08T04:56:34.823Z,1172
2016-06-08T04:57:35.810Z,1184
2016-06-08T04:58:35.157Z,1208
2016-06-08T04:59:35.096Z,1228
2016-06-08T05:00:35.131Z,1216
2016-06-08T05:01:35.179Z,1224
2016-06-08T05:02:35.214Z,1216
2016-06-08T05:03:35.265Z,1200
2016-06-08T05:04:35.298Z,1240
2016-06-08T05:05:35.348Z,1268
2016-06-08T05:06:35.228Z,1252
2016-06-08T05:07:35.428Z,1228
2016-06-08T05:08:35.333Z,1228
2016-06-08T05:09:35.532Z,1228
2016-06-08T05:10:35.578Z,1220
2016-06-08T05:11:35.634Z,1216
2016-06-08T05:12:35.735Z,1188
2016-06-08T05:13:35.413Z,1180
2016-06-08T05:14:35.779Z,1200
2016-06-08T05:15:35.817Z,1188
2016-06-08T05:16:35.854Z,1184
2016-06-08T05:17:35.905Z,1228
2016-06-08T05:18:35.940Z,1236
2016-06-08T05:19:35.991Z,1244
2016-06-08T05:20:36.026Z,1268
2016-06-08T05:21:36.077Z,1260
2016-06-08T05:22:36.095Z,1304
2016-06-08T05:23:36.146Z,1304
2016-06-08T05:24:36.195Z,1288
2016-06-08T05:25:36.230Z,1268
2016-06-08T05:26:36.280Z,1304
2016-06-08T05:27:37.314Z,1340
2016-06-08T05:28:36.301Z,1368
2016-06-08T05:29:36.414Z,1408
2016-06-08T05:30:36.448Z,1448
2016-06-08T05:31:36.482Z,1468
2016-06-08T05:32:36.532Z,1504
2016-06-08T05:33:36.566Z,1512
2016-06-08T05:34:36.615Z,1552
2016-06-08T05:35:36.649Z,1576
2016-06-08T05:36:36.526Z,1624
2016-06-08T05:37:36.733Z,1648
2016-06-08T05:38:36.782Z,1656
2016-06-08T05:39:36.816Z,1672
2016-06-08T05:40:36.866Z,1692
2016-06-08T05:41:36.900Z,1688
2016-06-08T05:42:37.465Z,1708
2016-06-08T05:43:38.123Z,1716
2016-06-08T05:44:36.876Z,1636
2016-06-08T05:45:37.051Z,1488
2016-06-08T05:46:36.961Z,1492
2016-06-08T05:47:37.166Z,1520
2016-06-08T05:48:37.184Z,1708
2016-06-08T05:49:37.328Z,1592
2016-06-08T05:50:37.267Z,1740
2016-06-08T05:51:37.302Z,1724
2016-06-08T05:52:37.352Z,1736
2016-06-08T05:53:37.385Z,1580
2016-06-08T05:54:37.435Z,1572
2016-06-08T05:55:37.484Z,1416
2016-06-08T05:56:37.534Z,1276
2016-06-08T05:57:37.802Z,1284
2016-06-08T05:58:38.383Z,1360
2016-06-08T05:59:37.651Z,1300
2016-06-08T06:00:37.685Z,1232
2016-06-08T06:01:37.735Z,1224
2016-06-08T06:02:37.768Z,1236
2016-06-08T06:03:37.818Z,1228
2016-06-08T06:04:37.851Z,1216
2016-06-08T06:05:37.918Z,1224
2016-06-08T06:06:37.952Z,1228
2016-06-08T06:07:37.985Z,1232
2016-06-08T06:08:38.019Z,1220
2016-06-08T06:09:38.084Z,1204
2016-06-08T06:10:38.118Z,1196
2016-06-08T06:11:38.167Z,1184
2016-06-08T06:12:38.717Z,1172
2016-06-08T06:13:38.126Z,1156
2016-06-08T06:14:38.270Z,1160
2016-06-08T06:15:38.164Z,1172
2016-06-08T06:16:38.353Z,1192
2016-06-08T06:17:38.403Z,1208
2016-06-08T06:18:38.436Z,1224
2016-06-08T06:19:38.470Z,1224
2016-06-08T06:20:38.520Z,1204
2016-06-08T06:21:38.413Z,1188
2016-06-08T06:22:38.603Z,1176
2016-06-08T06:23:38.497Z,1176
2016-06-08T06:24:38.672Z,1140
2016-06-08T06:25:38.721Z,1112
2016-06-08T06:26:38.755Z,1096
2016-06-08T06:27:38.805Z,1096
2016-06-08T06:28:40.338Z,1104
2016-06-08T06:29:38.872Z,1104
2016-06-08T06:30:38.906Z,1108
2016-06-08T06:31:38.971Z,1104
2016-06-08T06:32:38.991Z,1100
2016-06-08T06:33:39.040Z,1104
2016-06-08T06:34:38.932Z,1100
2016-06-08T06:35:39.139Z,1092
2016-06-08T06:36:39.001Z,1084
2016-06-08T06:37:39.207Z,1068
2016-06-08T06:38:39.225Z,1068
2016-06-08T06:39:39.290Z,1064
2016-06-08T06:40:39.168Z,1068
2016-06-08T06:41:39.358Z,1060
2016-06-08T06:42:39.657Z,1052
2016-06-08T06:43:39.598Z,1052
2016-06-08T06:44:39.476Z,1052
2016-06-08T06:45:39.525Z,1056
2016-06-08T06:46:39.559Z,1056
2016-06-08T06:47:39.593Z,1072
2016-06-08T06:48:39.627Z,1084
2016-06-08T06:49:39.676Z,1100
2016-06-08T06:50:39.553Z,1124
2016-06-08T06:51:39.744Z,1144
2016-06-08T06:52:39.638Z,1172
2016-06-08T06:53:39.828Z,1200
2016-06-08T06:54:39.878Z,1220
2016-06-08T06:55:39.755Z,1244
2016-06-08T06:56:39.945Z,1256
2016-06-08T06:57:39.994Z,1260
2016-06-08T06:58:40.263Z,1252
2016-06-08T06:59:40.094Z,1240
2016-06-08T07:00:40.127Z,1248
2016-06-08T07:01:40.162Z,1260
2016-06-08T07:02:40.180Z,1272
2016-06-08T07:03:40.089Z,1304
2016-06-08T07:04:40.280Z,1336
2016-06-08T07:05:40.156Z,1332
2016-06-08T07:06:40.363Z,1336
2016-06-08T07:07:40.397Z,1332
2016-06-08T07:08:40.431Z,1328
2016-06-08T07:09:40.480Z,1336
2016-06-08T07:10:40.514Z,1312
2016-06-08T07:11:40.548Z,1272
2016-06-08T07:12:40.582Z,1232
2016-06-08T07:13:41.084Z,1216
2016-06-08T07:14:40.665Z,1200
2016-06-08T07:15:40.714Z,1192
2016-06-08T07:16:40.764Z,1184
2016-06-08T07:17:40.799Z,1184
2016-06-08T07:18:40.833Z,1192
2016-06-08T07:19:40.903Z,1200
2016-06-08T07:20:40.920Z,1200
2016-06-08T07:21:40.940Z,1200
2016-06-08T07:22:41.003Z,1200
2016-06-08T07:23:41.041Z,1196
2016-06-08T07:24:41.060Z,1192
2016-06-08T07:25:41.125Z,1200
2016-06-08T07:26:41.144Z,1216
2016-06-08T07:27:41.178Z,1232
2016-06-08T07:28:42.384Z,1260
2016-06-08T07:29:41.261Z,1268
2016-06-08T07:30:41.295Z,1292
2016-06-08T07:31:41.344Z,1324
2016-06-08T07:32:41.378Z,1416
2016-06-08T07:33:41.428Z,1436
2016-06-08T07:34:41.462Z,1396
2016-06-08T07:35:41.502Z,1332
2016-06-08T07:36:41.536Z,1304
2016-06-08T07:37:41.586Z,1304
2016-06-08T07:38:41.620Z,1308
2016-06-08T07:39:41.653Z,1324
2016-06-08T07:40:41.547Z,1336
2016-06-08T07:41:42.383Z,1356
2016-06-08T07:42:41.619Z,1400
2016-06-08T07:43:41.966Z,1432
2016-06-08T07:44:41.891Z,1488
2016-06-08T07:45:41.752Z,1792
2016-06-08T07:46:41.786Z,1940
2016-06-08T07:47:41.835Z,2108
2016-06-08T07:48:41.854Z,2348
2016-06-08T07:49:41.904Z,2284
2016-06-08T07:50:42.111Z,2396
2016-06-08T07:51:42.138Z,2472
2016-06-08T07:52:42.188Z,2464
2016-06-08T07:53:42.222Z,2508
2016-06-08T07:54:44.115Z,2556
2016-06-08T07:55:42.306Z,2648
2016-06-08T07:56:42.342Z,2676
2016-06-08T07:57:42.391Z,2704
2016-06-08T07:58:42.300Z,2752
2016-06-08T07:59:42.459Z,2836
2016-06-08T08:00:42.508Z,2800
2016-06-08T08:01:42.542Z,2812
2016-06-08T08:02:42.608Z,2756
2016-06-08T08:03:42.642Z,2764
2016-06-08T08:04:42.675Z,2644
2016-06-08T08:05:42.709Z,2600
2016-06-08T08:06:42.791Z,2488
2016-06-08T08:07:42.825Z,2348
2016-06-08T08:08:42.703Z,2480
2016-06-08T08:09:42.908Z,2568
2016-06-08T08:10:42.942Z,2580
2016-06-08T08:11:43.010Z,2672
2016-06-08T08:12:43.028Z,2692
2016-06-08T08:13:42.922Z,2684
2016-06-08T08:14:43.135Z,2772
2016-06-08T08:15:43.028Z,2776
2016-06-08T08:16:43.234Z,2736
2016-06-08T08:17:43.252Z,2804
2016-06-08T08:18:43.302Z,2696
2016-06-08T08:19:43.352Z,2964
2016-06-08T08:20:43.385Z,2972
2016-06-08T08:21:43.435Z,3068
2016-06-08T08:22:43.484Z,3316
2016-06-08T08:23:43.535Z,3300
2016-06-08T08:24:43.600Z,3200
2016-06-08T08:25:43.492Z,3120
2016-06-08T08:26:43.668Z,2940
2016-06-08T08:27:43.545Z,2960
2016-06-08T08:28:44.329Z,2900
2016-06-08T08:29:43.801Z,2852
2016-06-08T08:30:43.850Z,2760
2016-06-08T08:31:43.884Z,2564
2016-06-08T08:32:43.933Z,2436
2016-06-08T08:33:43.983Z,2320
2016-06-08T08:34:44.033Z,2276
2016-06-08T08:35:44.097Z,2480
2016-06-08T08:36:44.131Z,2636
2016-06-08T08:37:44.181Z,2524
2016-06-08T08:38:44.200Z,2576
2016-06-08T08:39:44.265Z,2592
2016-06-08T08:40:44.330Z,2772
2016-06-08T08:41:44.348Z,2968
2016-06-08T08:42:44.414Z,2988
2016-06-08T08:43:45.448Z,3096
2016-06-08T08:44:44.372Z,3188
2016-06-08T08:45:44.547Z,3244
2016-06-08T08:46:44.471Z,3400
2016-06-08T08:47:44.489Z,3400
2016-06-08T08:48:44.695Z,3132
2016-06-08T08:49:44.744Z,3352
2016-06-08T08:50:44.763Z,3372
2016-06-08T08:51:44.828Z,3168
2016-06-08T08:52:44.862Z,2980
2016-06-08T08:53:44.755Z,2824
2016-06-08T08:54:44.945Z,2552
2016-06-08T08:55:44.839Z,2252
2016-06-08T08:56:45.045Z,2072
2016-06-08T08:57:45.095Z,1816
2016-06-08T08:58:45.019Z,1640
2016-06-08T08:59:44.897Z,1632
2016-06-08T09:00:45.227Z,1776
2016-06-08T09:01:45.277Z,2148
2016-06-08T09:02:45.359Z,2368
2016-06-08T09:03:45.236Z,2212
2016-06-08T09:04:45.410Z,2212
2016-06-08T09:05:45.459Z,2472
2016-06-08T09:06:45.509Z,2848
2016-06-08T09:07:45.559Z,2880
2016-06-08T09:08:45.624Z,2832
2016-06-08T09:09:45.642Z,3204
2016-06-08T09:10:45.692Z,3412
2016-06-08T09:11:45.741Z,3456
2016-06-08T09:12:45.775Z,3404
2016-06-08T09:13:46.794Z,3444
2016-06-08T09:14:45.578Z,3572
2016-06-08T09:15:45.924Z,3372
2016-06-08T09:16:45.974Z,3320
2016-06-08T09:17:46.008Z,3376
2016-06-08T09:18:46.151Z,3576
2016-06-08T09:19:46.107Z,3688
2016-06-08T09:20:46.157Z,3760
2016-06-08T09:21:46.206Z,4020
2016-06-08T09:22:46.287Z,3424
2016-06-08T09:23:46.305Z,3728
2016-06-08T09:24:46.338Z,3276
2016-06-08T09:25:46.248Z,2860
2016-06-08T09:26:46.438Z,2864
2016-06-08T09:27:46.488Z,3252
2016-06-08T09:28:46.928Z,3084
2016-06-08T09:29:46.680Z,3424
2016-06-08T09:30:46.496Z,3732
2016-06-08T09:31:46.670Z,3852
2016-06-08T09:32:46.564Z,3892
2016-06-08T09:33:46.769Z,3908
2016-06-08T09:34:46.834Z,4040
2016-06-08T09:35:46.868Z,4116
2016-06-08T09:36:46.902Z,4108
2016-06-08T09:37:46.952Z,3860
2016-06-08T09:38:47.017Z,3664
2016-06-08T09:39:47.051Z,3268
2016-06-08T09:40:47.101Z,3896
2016-06-08T09:41:47.166Z,3568
2016-06-08T09:42:47.200Z,3484
2016-06-08T09:43:47.578Z,3508
2016-06-08T09:44:47.800Z,3492
2016-06-08T09:45:47.349Z,3304
2016-06-08T09:46:47.398Z,2744
2016-06-08T09:47:47.447Z,2672
2016-06-08T09:48:47.497Z,2476
2016-06-08T09:49:47.563Z,2364
2016-06-08T09:50:47.596Z,2240
2016-06-08T09:51:47.646Z,2076
2016-06-08T09:52:47.695Z,2104
2016-06-08T09:53:47.746Z,2172
2016-06-08T09:54:47.779Z,2108
2016-06-08T09:55:47.844Z,2260
2016-06-08T09:56:47.878Z,2572
2016-06-08T09:57:47.943Z,2908
2016-06-08T09:58:48.415Z,2876
2016-06-08T09:59:48.698Z,2884
2016-06-08T10:00:48.076Z,2828
2016-06-08T10:01:48.110Z,3168
2016-06-08T10:02:48.160Z,2976
2016-06-08T10:03:48.225Z,2648
2016-06-08T10:04:48.243Z,3516
2016-06-08T10:05:48.293Z,3980
2016-06-08T10:06:48.343Z,3852
2016-06-08T10:07:48.393Z,3668
2016-06-08T10:08:48.441Z,3608
2016-06-08T10:09:48.476Z,3276
2016-06-08T10:10:48.541Z,3112
2016-06-08T10:11:48.575Z,3176
2016-06-08T10:12:48.625Z,3272
2016-06-08T10:13:48.705Z,3452
2016-06-08T10:14:49.145Z,3224
2016-06-08T10:15:48.773Z,3192
2016-06-08T10:16:48.683Z,3136
2016-06-08T10:17:48.856Z,2932
2016-06-08T10:18:48.937Z,2988
2016-06-08T10:19:48.955Z,3296
2016-06-08T10:20:48.864Z,2972
2016-06-08T10:21:49.055Z,3096
2016-06-08T10:22:49.119Z,3100
2016-06-08T10:23:49.044Z,2876
2016-06-08T10:24:49.203Z,2360
2016-06-08T10:25:49.237Z,2484
2016-06-08T10:26:49.146Z,2012
2016-06-08T10:27:49.212Z,2636
2016-06-08T10:28:49.980Z,2852
2016-06-08T10:29:50.404Z,2796
2016-06-08T10:30:49.501Z,3108
2016-06-08T10:31:49.550Z,3188
2016-06-08T10:32:49.460Z,3372
2016-06-08T10:33:49.634Z,3480
2016-06-08T10:34:49.699Z,3272
2016-06-08T10:35:49.592Z,3532
2016-06-08T10:36:49.782Z,3532
2016-06-08T10:37:49.676Z,3292
2016-06-08T10:38:49.726Z,3104
2016-06-08T10:39:49.931Z,3124
2016-06-08T10:40:49.981Z,2812
2016-06-08T10:41:49.734Z,2784
2016-06-08T10:42:50.080Z,2760
2016-06-08T10:43:49.989Z,2576
2016-06-08T10:44:50.179Z,2468
2016-06-08T10:45:50.119Z,2288
2016-06-08T10:46:50.278Z,2044
2016-06-08T10:47:50.327Z,1984
2016-06-08T10:48:50.377Z,1552
2016-06-08T10:49:50.427Z,1512
2016-06-08T10:50:50.602Z,1696
2016-06-08T10:51:50.526Z,1612
2016-06-08T10:52:52.575Z,1548
2016-06-08T10:53:50.610Z,1548
2016-06-08T10:54:50.660Z,1420
2016-06-08T10:55:50.708Z,1528
2016-06-08T10:56:50.898Z,1492
2016-06-08T10:57:50.807Z,1648
2016-06-08T10:58:53.326Z,1532
2016-06-08T10:59:52.344Z,1816
2016-06-08T11:00:50.801Z,1696
2016-06-08T11:01:50.850Z,1576
2016-06-08T11:02:51.056Z,1652
2016-06-08T11:03:51.090Z,1676
2016-06-08T11:04:51.123Z,1672
2016-06-08T11:05:51.189Z,1628
2016-06-08T11:06:51.254Z,1548
2016-06-08T11:07:51.288Z,1452
2016-06-08T11:08:51.322Z,1544
2016-06-08T11:09:51.371Z,1540
2016-06-08T11:10:51.264Z,1600
2016-06-08T11:11:51.314Z,1656
2016-06-08T11:12:51.489Z,1584
2016-06-08T11:13:55.397Z,1592
2016-06-08T11:14:51.603Z,1684
2016-06-08T11:15:51.778Z,1688
2016-06-08T11:16:51.686Z,1820
2016-06-08T11:17:51.752Z,1844
2016-06-08T11:18:51.770Z,1860
2016-06-08T11:19:51.819Z,1812
2016-06-08T11:20:51.870Z,1916
2016-06-08T11:21:51.764Z,1948
2016-06-08T11:22:51.968Z,1912
2016-06-08T11:23:52.003Z,1884
2016-06-08T11:24:52.052Z,1896
2016-06-08T11:25:52.102Z,1928
2016-06-08T11:26:52.136Z,1976
2016-06-08T11:27:52.185Z,1916
2016-06-08T11:28:53.172Z,1952
2016-06-08T11:29:52.847Z,2028
2016-06-08T11:30:52.334Z,1992
2016-06-08T11:31:52.384Z,2140
2016-06-08T11:32:52.262Z,2100
2016-06-08T11:33:52.467Z,2256
2016-06-08T11:34:52.501Z,2424
2016-06-08T11:35:52.551Z,2344
2016-06-08T11:36:52.600Z,2376
2016-06-08T11:37:52.650Z,2264
2016-06-08T11:38:52.698Z,2332
2016-06-08T11:39:52.592Z,2432
2016-06-08T11:40:52.784Z,2508
2016-06-08T11:41:52.832Z,2384
2016-06-08T11:42:52.585Z,2432
2016-06-08T11:43:53.462Z,2496
2016-06-08T11:44:53.012Z,2380
2016-06-08T11:45:52.906Z,2308
2016-06-08T11:46:53.112Z,2308
2016-06-08T11:47:53.145Z,2248
2016-06-08T11:48:53.180Z,2268
2016-06-08T11:49:53.228Z,2220
2016-06-08T11:50:53.794Z,2208
2016-06-08T11:51:53.328Z,2276
2016-06-08T11:52:53.393Z,2244
2016-06-08T11:53:53.114Z,2132
2016-06-08T11:54:53.336Z,1968
2016-06-08T11:55:53.526Z,2072
2016-06-08T11:56:53.577Z,1912
2016-06-08T11:57:53.625Z,1952
2016-06-08T11:58:54.174Z,2180
2016-06-08T11:59:54.396Z,2156
2016-06-08T12:00:54.493Z,2320
2016-06-08T12:01:54.557Z,2312
2016-06-08T12:02:53.858Z,2320
2016-06-08T12:03:53.923Z,2076
2016-06-08T12:04:53.815Z,2204
2016-06-08T12:05:54.022Z,2220
2016-06-08T12:06:54.056Z,1940
2016-06-08T12:07:53.949Z,1812
2016-06-08T12:08:54.015Z,1704
2016-06-08T12:09:54.251Z,1932
2016-06-08T12:10:54.254Z,2080
2016-06-08T12:11:54.304Z,2180
2016-06-08T12:12:55.009Z,2276
2016-06-08T12:13:54.403Z,2328
2016-06-08T12:14:54.453Z,2116
2016-06-08T12:15:54.517Z,2112
2016-06-08T12:16:54.395Z,2012
2016-06-08T12:17:54.617Z,2008
2016-06-08T12:18:54.353Z,1956
2016-06-08T12:19:54.544Z,1744
2016-06-08T12:20:54.608Z,1616
2016-06-08T12:21:54.799Z,1468
2016-06-08T12:22:54.880Z,1396
2016-06-08T12:23:54.914Z,1512
2016-06-08T12:24:54.947Z,1816
2016-06-08T12:25:54.997Z,1588
2016-06-08T12:26:55.063Z,1408
2016-06-08T12:27:54.941Z,1432
2016-06-08T12:28:54.991Z,1500
2016-06-08T12:29:55.883Z,1632
2016-06-08T12:30:55.245Z,1988
2016-06-08T12:31:55.296Z,1884
2016-06-08T12:32:55.344Z,1736
2016-06-08T12:33:55.379Z,1836
2016-06-08T12:34:55.428Z,1752
2016-06-08T12:35:55.477Z,1740
2016-06-08T12:36:55.527Z,2096
2016-06-08T12:37:55.592Z,2240
2016-06-08T12:38:55.642Z,2320
2016-06-08T12:39:55.676Z,2348
2016-06-08T12:40:55.740Z,2416
2016-06-08T12:41:55.759Z,2336
2016-06-08T12:42:55.825Z,2292
2016-06-08T12:43:55.859Z,2152
2016-06-08T12:44:55.939Z,2000
2016-06-08T12:45:55.973Z,2004
2016-06-08T12:46:55.867Z,1856
2016-06-08T12:47:56.056Z,1760
2016-06-08T12:48:56.122Z,1500
2016-06-08T12:49:56.172Z,1444
2016-06-08T12:50:56.221Z,1300
2016-06-08T12:51:56.270Z,1268
2016-06-08T12:52:56.320Z,1568
2016-06-08T12:53:56.229Z,1548
2016-06-08T12:54:56.419Z,1620
2016-06-08T12:55:56.469Z,1444
2016-06-08T12:56:56.362Z,1628
2016-06-08T12:57:56.569Z,1720
2016-06-08T12:58:56.633Z,1560
2016-06-08T12:59:56.730Z,1532
2016-06-08T13:01:22.061Z,1592
2016-06-08T13:01:56.610Z,1596
2016-06-08T13:02:56.816Z,1508
2016-06-08T13:03:56.881Z,1564
2016-06-08T13:04:56.915Z,1532
2016-06-08T13:05:56.980Z,1552
2016-06-08T13:06:57.014Z,1460
2016-06-08T13:07:57.063Z,1448
2016-06-08T13:08:57.128Z,1508
2016-06-08T13:09:57.162Z,1436
2016-06-08T13:10:57.213Z,1492
2016-06-08T13:11:57.278Z,1588
2016-06-08T13:12:57.311Z,1508
2016-06-08T13:13:57.376Z,1700
2016-06-08T13:14:58.739Z,1844
2016-06-08T13:15:57.460Z,1732
2016-06-08T13:16:57.541Z,1760
2016-06-08T13:17:57.419Z,1772
2016-06-08T13:18:57.624Z,1816
2016-06-08T13:19:57.658Z,1768
2016-06-08T13:20:57.724Z,1532
2016-06-08T13:21:57.773Z,1524
2016-06-08T13:22:57.838Z,1344
2016-06-08T13:23:57.872Z,1208
2016-06-08T13:24:57.922Z,1332
2016-06-08T13:25:57.987Z,1216
2016-06-08T13:26:58.021Z,1184
2016-06-08T13:27:57.914Z,1276
2016-06-08T13:28:58.136Z,1288
2016-06-08T13:29:58.029Z,1432
2016-06-08T13:30:58.313Z,1528
2016-06-08T13:31:58.269Z,1312
2016-06-08T13:32:58.318Z,1192
2016-06-08T13:33:58.383Z,1236
2016-06-08T13:34:58.433Z,1316
2016-06-08T13:35:58.468Z,1460
2016-06-08T13:36:58.532Z,1588
2016-06-08T13:37:58.597Z,1688
2016-06-08T13:38:58.631Z,1712
2016-06-08T13:39:58.666Z,1688
2016-06-08T13:40:58.715Z,1700
2016-06-08T13:41:58.765Z,1748